Time;durP1;ratioP1;P1;durP2;ratioP2;P2;SDS_P1;SDS_P2;PMS_P1;PMS_P2;Temp;Humidity;BMP_temperature;BMP_pressure;BME280_temperature;BME280_humidity;BME280_pressure;Samples;Min_cycle;Max_cycle;Signal;HPM_P1;HPM_P2
2021/12/21 00:00:28;;;;;;;5.20;4.40;;;;;;;2.91;63.91;99734.72;5112057;28;20436;-73
2021/12/21 00:02:55;;;;;;;4.53;4.23;;;;;;;2.93;63.29;99738.03;5112345;28;20497;-73
2021/12/21 00:05:27;;;;;;;4.40;4.00;;;;;;;2.86;63.53;99747.41;5112511;28;20444;-73
2021/12/21 00:07:55;;;;;;;5.00;4.60;;;;;;;3.03;63.17;99741.44;5112575;28;20471;-74
2021/12/21 00:10:25;;;;;;;4.57;4.27;;;;;;;3.00;63.15;99741.75;5112931;28;20439;-73
2021/12/21 00:13:05;;;;;;;4.97;4.47;;;;;;;3.04;63.08;99756.22;5112612;28;20432;-73
2021/12/21 00:15:43;;;;;;;4.40;4.10;;;;;;;3.07;62.38;99750.69;5113363;28;20850;-73
2021/12/21 00:18:22;;;;;;;4.70;4.30;;;;;;;3.08;62.75;99762.84;5112798;28;20791;-74
2021/12/21 00:20:57;;;;;;;4.40;4.00;;;;;;;3.09;62.83;99764.50;5113221;28;20432;-73
2021/12/21 00:23:38;;;;;;;5.30;4.80;;;;;;;3.23;62.19;99764.03;5112080;28;20439;-73
2021/12/21 00:26:07;;;;;;;4.50;4.10;;;;;;;3.19;61.67;99770.53;5112113;28;20432;-73
2021/12/21 00:28:40;;;;;;;4.77;4.40;;;;;;;3.04;62.26;99771.97;5112351;28;20432;-73
2021/12/21 00:31:08;;;;;;;4.50;3.90;;;;;;;2.96;61.98;99763.97;5113107;28;20501;-73
2021/12/21 00:33:39;;;;;;;4.60;3.70;;;;;;;3.05;62.43;99772.78;5112257;28;20428;-73
2021/12/21 00:36:06;;;;;;;4.23;3.37;;;;;;;3.02;61.31;99770.47;5112009;28;20421;-73
2021/12/21 00:38:33;;;;;;;4.20;3.73;;;;;;;3.00;62.09;99775.84;5112310;28;20428;-73
2021/12/21 00:40:59;;;;;;;4.80;4.40;;;;;;;3.03;62.07;99765.03;5112137;28;20436;-74
2021/12/21 00:43:26;;;;;;;5.50;5.00;;;;;;;3.18;60.85;99768.88;5112278;28;20497;-73
2021/12/21 00:45:53;;;;;;;7.70;4.20;;;;;;;3.06;60.57;99774.47;5111814;28;20436;-73
2021/12/21 00:48:26;;;;;;;7.00;3.90;;;;;;;3.00;61.18;99765.34;5111936;28;20932;-73
2021/12/21 00:50:53;;;;;;;4.07;3.77;;;;;;;2.96;60.19;99765.75;5112253;28;20481;-74
2021/12/21 00:53:20;;;;;;;3.60;3.40;;;;;;;3.06;60.36;99770.03;5112184;28;20440;-73
2021/12/21 00:55:47;;;;;;;3.67;3.33;;;;;;;3.17;59.44;99767.25;5111901;28;21005;-73
2021/12/21 00:58:13;;;;;;;3.97;3.70;;;;;;;3.17;59.33;99769.03;5111873;28;20990;-73
2021/12/21 01:00:41;;;;;;;4.13;3.67;;;;;;;3.03;59.98;99775.53;5112059;28;20428;-73
2021/12/21 01:03:11;;;;;;;3.63;3.43;;;;;;;2.92;59.78;99775.72;5111751;28;20528;-73
2021/12/21 01:05:45;;;;;;;3.50;3.30;;;;;;;2.92;59.94;99778.34;5114323;28;20432;-75
2021/12/21 01:08:17;;;;;;;3.77;3.50;;;;;;;2.90;60.29;99775.03;5115623;28;20441;-74
2021/12/21 01:11:05;;;;;;;4.40;4.03;;;;;;;3.03;59.07;99778.16;5115787;28;20446;-75
2021/12/21 01:13:52;;;;;;;4.13;3.10;;;;;;;3.00;60.19;99773.22;5116051;28;20519;-74
2021/12/21 01:16:26;;;;;;;4.27;3.87;;;;;;;3.10;59.81;99783.72;5115983;28;20436;-74
2021/12/21 01:19:06;;;;;;;3.50;3.30;;;;;;;3.08;59.15;99778.59;5115903;28;20490;-73
2021/12/21 01:21:39;;;;;;;3.77;3.47;;;;;;;3.06;59.59;99790.19;5115514;28;20466;-73
2021/12/21 01:24:26;;;;;;;3.80;3.60;;;;;;;3.17;60.03;99790.84;5116363;28;20795;-73
2021/12/21 01:27:10;;;;;;;3.00;2.80;;;;;;;3.13;59.38;99786.88;5115476;28;20433;-73
2021/12/21 01:29:45;;;;;;;2.80;2.70;;;;;;;3.00;59.34;99788.97;5115641;28;20436;-73
2021/12/21 01:32:19;;;;;;;4.30;3.17;;;;;;;3.02;58.41;99794.06;5115197;28;20525;-73
2021/12/21 01:34:56;;;;;;;3.90;3.03;;;;;;;2.96;58.61;99792.00;5115644;28;20439;-75
2021/12/21 01:37:31;;;;;;;2.97;2.77;;;;;;;2.80;58.60;99795.22;5115558;28;20444;-75
2021/12/21 01:40:10;;;;;;;2.83;2.73;;;;;;;2.87;57.89;99790.22;5116094;28;20427;-74
2021/12/21 01:50:51;;;;;;;2.87;2.67;;;;;;;2.82;56.97;99790.63;5114842;28;20899;-73
2021/12/21 01:53:19;;;;;;;3.00;2.80;;;;;;;2.83;56.36;99789.69;5114637;28;20493;-74
2021/12/21 01:55:46;;;;;;;3.10;2.80;;;;;;;2.85;56.51;99784.28;5114565;28;20440;-75
2021/12/21 01:58:13;;;;;;;4.20;3.03;;;;;;;2.75;56.74;99786.94;5114612;28;20468;-74
2021/12/21 02:00:40;;;;;;;2.77;2.57;;;;;;;2.80;57.12;99784.72;5114521;28;20436;-74
2021/12/21 02:03:07;;;;;;;2.80;2.70;;;;;;;2.75;57.98;99786.09;5115002;28;20475;-73
2021/12/21 02:05:34;;;;;;;3.30;3.00;;;;;;;2.78;58.52;99780.59;5114985;28;20436;-74
2021/12/21 02:08:01;;;;;;;3.10;2.90;;;;;;;2.83;57.85;99781.81;5114349;28;20501;-73
2021/12/21 02:10:29;;;;;;;3.87;2.93;;;;;;;2.90;58.49;99780.28;5114594;28;20444;-73
2021/12/21 02:12:56;;;;;;;3.37;3.17;;;;;;;2.91;59.12;99779.31;5114238;28;20436;-73
2021/12/21 02:15:24;;;;;;;3.10;2.90;;;;;;;2.88;58.80;99784.84;5114194;28;20444;-75
2021/12/21 02:18:26;;;;;;;3.20;3.00;;;;;;;2.86;59.39;99788.56;5114794;28;20437;-75
2021/12/21 02:20:56;;;;;;;3.33;3.13;;;;;;;2.88;59.47;99790.09;5113905;28;20448;-75
2021/12/21 02:23:29;;;;;;;3.43;3.13;;;;;;;2.93;58.95;99787.88;5114151;28;20483;-75
2021/12/21 02:28:58;;;;;;;3.50;2.77;;;;;;;2.97;59.60;99794.50;5103826;28;20533;-75
2021/12/21 02:31:26;;;;;;;3.47;3.30;;;;;;;2.82;58.33;99798.50;5114656;28;20432;-75
2021/12/21 02:33:54;;;;;;;3.13;2.93;;;;;;;2.87;58.60;99796.31;5114668;28;20440;-74
2021/12/21 02:36:22;;;;;;;3.50;2.80;;;;;;;2.90;59.39;99800.44;5114482;28;20436;-74
2021/12/21 02:38:49;;;;;;;3.30;3.10;;;;;;;3.03;58.51;99799.16;5114044;28;20493;-73
2021/12/21 02:41:15;;;;;;;3.17;2.93;;;;;;;3.05;58.90;99805.09;5114006;28;20432;-73
2021/12/21 02:43:42;;;;;;;3.43;3.23;;;;;;;3.07;58.56;99805.78;5113666;28;20504;-73
2021/12/21 02:46:09;;;;;;;3.07;2.87;;;;;;;3.03;58.85;99807.03;5113613;28;20943;-73
2021/12/21 02:48:36;;;;;;;4.20;3.90;;;;;;;3.03;58.69;99807.03;5113553;28;20454;-73
2021/12/21 02:51:03;;;;;;;3.70;3.40;;;;;;;3.08;59.39;99809.25;5114037;28;20861;-74
2021/12/21 02:53:32;;;;;;;3.20;3.00;;;;;;;3.10;59.12;99812.56;5113759;28;20497;-74
2021/12/21 02:55:58;;;;;;;3.23;3.03;;;;;;;3.08;59.79;99810.09;5114536;28;20432;-73
2021/12/21 02:58:25;;;;;;;4.07;3.77;;;;;;;3.15;58.98;99810.34;5113729;28;20468;-74
2021/12/21 03:00:54;;;;;;;3.53;3.33;;;;;;;3.09;59.67;99805.66;5113641;28;20529;-74
2021/12/21 03:03:20;;;;;;;3.20;3.00;;;;;;;3.07;60.35;99813.66;5114327;28;20471;-73
2021/12/21 03:05:51;;;;;;;4.10;3.53;;;;;;;3.04;60.26;99811.34;5113188;28;20938;-73
2021/12/21 03:08:22;;;;;;;5.67;2.90;;;;;;;3.05;60.16;99805.09;5114083;28;20527;-73
2021/12/21 03:11:06;;;;;;;3.20;3.00;;;;;;;3.05;60.25;99812.13;5114310;28;20428;-73
2021/12/21 03:13:55;;;;;;;3.17;2.87;;;;;;;3.04;60.15;99813.13;5114202;28;20686;-73
2021/12/21 03:16:23;;;;;;;3.77;3.27;;;;;;;3.12;60.20;99816.72;5113076;28;20190;-73
2021/12/21 03:18:49;;;;;;;3.80;3.50;;;;;;;3.08;60.70;99814.50;5113316;28;20505;-72
2021/12/21 03:21:17;;;;;;;3.60;3.30;;;;;;;3.10;60.52;99818.63;5112941;28;20432;-73
2021/12/21 03:23:44;;;;;;;3.77;3.50;;;;;;;3.11;60.82;99815.03;5113162;28;20502;-73
2021/12/21 03:26:12;;;;;;;3.83;3.63;;;;;;;3.11;60.06;99820.28;5112899;28;20436;-73
2021/12/21 03:28:39;;;;;;;4.00;3.60;;;;;;;3.18;60.56;99821.38;5112479;28;20502;-73
2021/12/21 03:31:06;;;;;;;3.90;3.60;;;;;;;3.16;59.83;99817.25;5113130;28;20826;-72
2021/12/21 03:33:33;;;;;;;3.73;3.53;;;;;;;3.00;60.37;99817.81;5112722;28;20969;-72
2021/12/21 03:36:02;;;;;;;3.60;3.40;;;;;;;3.02;60.30;99826.38;5113858;28;20485;-72
2021/12/21 03:38:30;;;;;;;4.27;4.07;;;;;;;3.02;60.90;99817.69;5113197;28;20501;-73
2021/12/21 03:41:02;;;;;;;4.20;3.90;;;;;;;3.05;60.11;99820.84;5112658;28;20190;-72
2021/12/21 03:43:31;;;;;;;5.03;3.87;;;;;;;3.08;60.42;99823.19;5113487;28;20554;-73
2021/12/21 03:46:06;;;;;;;4.10;3.73;;;;;;;3.20;59.96;99829.94;5112585;28;20432;-73
2021/12/21 03:48:33;;;;;;;3.20;3.10;;;;;;;3.18;59.20;99826.63;5112865;28;20186;-73
2021/12/21 03:51:00;;;;;;;3.87;3.77;;;;;;;3.06;60.10;99833.00;5113285;28;20459;-73
2021/12/21 03:53:26;;;;;;;4.30;4.00;;;;;;;3.05;60.63;99830.50;5112515;28;20726;-73
2021/12/21 03:56:04;;;;;;;4.13;3.73;;;;;;;3.07;60.42;99839.88;5112470;28;20446;-73
2021/12/21 03:58:32;;;;;;;3.50;3.40;;;;;;;2.93;61.10;99842.97;5113348;28;20472;-73
2021/12/21 04:00:58;;;;;;;4.07;3.87;;;;;;;2.90;61.42;99842.41;5112691;28;20190;-73
2021/12/21 04:03:25;;;;;;;4.63;4.27;;;;;;;2.90;61.52;99848.47;5112359;28;20506;-73
2021/12/21 04:05:52;;;;;;;3.87;3.67;;;;;;;2.88;61.41;99850.41;5113020;28;20432;-73
2021/12/21 04:08:19;;;;;;;4.13;3.77;;;;;;;2.92;61.87;99854.44;5112915;28;20493;-73
2021/12/21 04:10:45;;;;;;;4.40;4.10;;;;;;;2.94;61.25;99849.84;5112251;28;20444;-73
2021/12/21 04:13:12;;;;;;;3.57;3.47;;;;;;;2.89;61.59;99836.34;5112192;28;20990;-73
2021/12/21 04:15:43;;;;;;;4.40;4.10;;;;;;;2.87;60.93;99842.69;5113037;28;20501;-74
2021/12/21 04:18:10;;;;;;;4.20;3.90;;;;;;;2.90;61.58;99853.72;5113343;28;20561;-74
2021/12/21 04:20:37;;;;;;;3.70;3.50;;;;;;;2.89;61.45;99851.22;5112136;28;20815;-74
2021/12/21 04:23:04;;;;;;;3.80;3.60;;;;;;;2.85;62.00;99853.31;5112119;28;20902;-73
2021/12/21 04:25:31;;;;;;;4.27;4.07;;;;;;;2.90;61.80;99853.72;5112459;28;20497;-73
2021/12/21 04:27:57;;;;;;;4.13;3.90;;;;;;;2.88;61.79;99865.31;5112710;28;20436;-74
2021/12/21 04:30:26;;;;;;;4.37;4.07;;;;;;;2.93;61.98;99853.44;5112618;28;20432;-73
2021/12/21 04:32:54;;;;;;;4.67;4.37;;;;;;;2.87;61.68;99859.28;5112015;28;21063;-73
2021/12/21 04:35:21;;;;;;;11.20;4.30;;;;;;;2.85;61.47;99868.22;5112399;28;20428;-73
2021/12/21 04:37:52;;;;;;;4.87;4.37;;;;;;;2.79;62.16;99861.75;5112347;28;20523;-73
2021/12/21 04:40:23;;;;;;;5.73;5.40;;;;;;;2.78;62.56;99865.31;5113627;28;20495;-73
2021/12/21 04:42:50;;;;;;;5.37;4.93;;;;;;;2.71;62.52;99869.47;5117178;28;20486;-73
2021/12/21 04:45:17;;;;;;;5.33;5.03;;;;;;;2.77;62.43;99865.47;5115893;28;20465;-73
2021/12/21 04:47:43;;;;;;;5.43;5.00;;;;;;;2.71;62.46;99869.47;5116143;28;20436;-73
2021/12/21 04:50:12;;;;;;;4.70;4.40;;;;;;;2.63;62.59;99858.00;5116094;28;20431;-73
2021/12/21 04:52:39;;;;;;;4.50;4.30;;;;;;;2.63;62.71;99863.25;5115999;28;20471;-73
2021/12/21 04:55:06;;;;;;;5.17;4.17;;;;;;;2.56;62.81;99876.06;5116013;28;20436;-72
2021/12/21 04:57:33;;;;;;;4.80;4.37;;;;;;;2.54;61.86;99880.63;5115316;28;20489;-72
2021/12/21 05:00:00;;;;;;;4.03;3.77;;;;;;;2.61;61.38;99892.22;5115589;28;20429;-72
2021/12/21 05:02:27;;;;;;;4.03;3.63;;;;;;;2.66;61.49;99897.88;5116667;28;20436;-72
2021/12/21 05:04:53;;;;;;;4.10;3.70;;;;;;;2.76;60.51;99903.97;5116060;28;20488;-75
2021/12/21 05:07:23;;;;;;;3.90;3.70;;;;;;;2.70;60.91;99907.13;5115803;28;20439;-74
2021/12/21 05:09:56;;;;;;;5.80;5.27;;;;;;;2.75;60.53;99906.72;5116333;28;20784;-75
2021/12/21 05:12:23;;;;;;;4.70;4.50;;;;;;;2.75;60.65;99914.59;5115373;28;20516;-75
2021/12/21 05:14:50;;;;;;;3.63;3.43;;;;;;;2.73;61.93;99913.94;5116463;28;20497;-75
2021/12/21 05:17:17;;;;;;;4.20;4.00;;;;;;;2.79;61.15;99913.38;5115614;28;20485;-75
2021/12/21 05:19:44;;;;;;;3.80;3.60;;;;;;;2.81;61.35;99925.38;5116108;28;20779;-74
2021/12/21 05:22:11;;;;;;;4.43;4.13;;;;;;;2.81;61.39;99928.00;5115101;28;20501;-73
2021/12/21 05:24:40;;;;;;;4.07;3.80;;;;;;;2.74;61.54;99928.69;5114862;28;20497;-71
2021/12/21 05:27:07;;;;;;;4.77;4.00;;;;;;;2.79;61.24;99932.56;5115078;28;20440;-72
2021/12/21 05:29:33;;;;;;;3.83;3.60;;;;;;;2.78;60.99;99938.75;5116169;28;20489;-71
2021/12/21 05:32:00;;;;;;;23.27;4.63;;;;;;;2.76;61.59;99938.06;5116001;28;20493;-73
2021/12/21 05:34:27;;;;;;;3.70;3.50;;;;;;;2.84;60.18;99937.38;5114790;28;20472;-73
2021/12/21 05:36:54;;;;;;;4.40;4.10;;;;;;;2.77;60.78;99937.09;5114782;28;20944;-73
2021/12/21 05:39:24;;;;;;;3.77;3.57;;;;;;;2.86;60.37;99936.28;5114876;28;20884;-72
2021/12/21 05:41:54;;;;;;;4.40;4.00;;;;;;;2.92;60.28;99946.25;5115237;28;20512;-71
2021/12/21 05:44:24;;;;;;;4.40;4.00;;;;;;;2.95;60.10;99955.63;5114915;28;20432;-70
2021/12/21 05:46:52;;;;;;;4.40;4.00;;;;;;;2.84;60.96;99956.59;5114549;28;20469;-71
2021/12/21 05:49:19;;;;;;;4.77;4.30;;;;;;;2.87;60.74;99958.09;5114659;28;20440;-70
2021/12/21 05:51:47;;;;;;;4.90;4.50;;;;;;;2.89;61.15;99961.41;5112835;28;20198;-71
2021/12/21 05:54:15;;;;;;;5.50;5.10;;;;;;;2.86;60.33;99965.13;5114373;28;20468;-70
2021/12/21 05:56:42;;;;;;;8.40;7.80;;;;;;;2.88;60.47;99965.00;5114263;28;20440;-76
2021/12/21 05:59:10;;;;;;;10.60;8.30;;;;;;;2.79;60.15;99958.78;5114383;28;20525;-76
2021/12/21 06:01:37;;;;;;;12.20;10.33;;;;;;;2.85;60.19;99966.09;5113974;28;20454;-76
2021/12/21 06:04:05;;;;;;;10.60;9.63;;;;;;;2.88;60.42;99973.72;5115048;28;20501;-75
2021/12/21 06:06:32;;;;;;;7.87;7.20;;;;;;;2.95;60.53;99972.22;5114763;28;20455;-76
2021/12/21 06:09:03;;;;;;;5.63;5.13;;;;;;;3.01;60.03;99963.78;5114392;28;20444;-78
2021/12/21 06:11:32;;;;;;;11.23;6.50;;;;;;;2.97;59.68;99975.50;5111295;28;21022;-74
2021/12/21 06:14:14;;;;;;;16.60;9.73;;;;;;;2.99;59.42;99984.06;5113823;28;20504;-74
2021/12/21 06:25:23;;;;;;;7.67;6.27;;;;;;;3.07;58.03;99992.09;5092442;28;20401;-77
2021/12/21 06:27:50;;;;;;;7.80;5.77;;;;;;;3.05;57.32;99988.78;5106345;28;20440;-76
2021/12/21 06:30:17;;;;;;;6.23;5.57;;;;;;;3.23;57.00;100007.31;5113804;28;20440;-76
2021/12/21 06:32:46;;;;;;;6.03;5.53;;;;;;;3.32;55.67;100007.31;5103641;28;20517;-76
2021/12/21 06:35:14;;;;;;;7.97;7.33;;;;;;;3.29;56.41;100012.84;5103360;28;20951;-76
2021/12/21 06:37:41;;;;;;;7.03;5.90;;;;;;;3.36;55.65;100008.72;5095910;28;20433;-74
2021/12/21 06:40:09;;;;;;;8.37;5.67;;;;;;;3.48;54.50;100030.41;5092191;28;20593;-73
2021/12/21 06:42:37;;;;;;;6.00;5.40;;;;;;;3.46;54.47;100033.16;5112512;28;20509;-76
2021/12/21 06:45:12;;;;;;;5.63;5.00;;;;;;;3.51;54.31;100036.19;5111864;28;20206;-78
2021/12/21 06:53:09;;;;;;;4.83;4.53;;;;;;;3.56;53.15;100048.91;5112082;28;20783;-78
2021/12/21 06:55:36;;;;;;;4.60;4.40;;;;;;;3.50;53.57;100049.47;5112947;28;20448;-78
2021/12/21 06:58:03;;;;;;;9.00;5.17;;;;;;;3.50;53.83;100045.03;5112883;28;20482;-78
2021/12/21 07:00:30;;;;;;;8.03;7.40;;;;;;;3.54;53.34;100046.44;5110983;28;20424;-81
2021/12/21 07:02:57;;;;;;;20.80;14.33;;;;;;;3.58;53.70;100050.44;5111822;28;20439;-78
2021/12/21 07:05:26;;;;;;;13.70;8.93;;;;;;;3.58;52.99;100055.69;5111603;28;20501;-79
2021/12/21 07:07:53;;;;;;;12.20;7.60;;;;;;;3.68;52.88;100046.00;5111724;28;20428;-76
2021/12/21 07:10:25;;;;;;;9.60;6.87;;;;;;;3.62;53.33;100051.81;5112278;28;20190;-77
2021/12/21 07:18:29;;;;;;;10.83;7.70;;;;;;;3.86;53.33;100068.00;5110302;28;20194;-80
2021/12/21 07:20:59;;;;;;;9.70;7.33;;;;;;;3.90;52.39;100066.75;5100618;28;20265;-76
2021/12/21 07:23:26;;;;;;;6.60;5.80;;;;;;;4.10;53.11;100067.53;5101301;28;20278;-75
2021/12/21 07:25:53;;;;;;;6.67;6.03;;;;;;;4.32;52.30;100068.03;5096258;28;20923;-76
2021/12/21 07:28:20;;;;;;;12.80;6.10;;;;;;;4.32;52.48;100073.31;5092754;28;20248;-77
2021/12/21 07:30:48;;;;;;;7.77;7.03;;;;;;;4.47;52.40;100071.88;5092221;28;20191;-76
2021/12/21 07:33:15;;;;;;;9.33;4.70;;;;;;;4.67;51.03;100070.00;5092363;28;20305;-77
2021/12/21 07:35:42;;;;;;;6.93;6.20;;;;;;;4.80;50.74;100073.13;5092193;28;20247;-77
2021/12/21 07:38:10;;;;;;;12.27;5.87;;;;;;;5.10;50.28;100071.03;5092429;28;20244;-76
2021/12/21 07:40:37;;;;;;;14.57;5.77;;;;;;;5.31;49.73;100068.16;5100655;28;20218;-75
2021/12/21 07:43:04;;;;;;;32.17;7.20;;;;;;;5.65;48.27;100083.13;5112433;28;20247;-75
2021/12/21 07:45:31;;;;;;;7.47;5.40;;;;;;;5.83;47.66;100085.81;5112451;28;20623;-78
2021/12/21 07:47:58;;;;;;;5.60;4.70;;;;;;;5.94;47.06;100097.94;5112285;28;20199;-75
2021/12/21 07:50:26;;;;;;;6.17;4.97;;;;;;;6.20;46.40;100104.09;5112529;28;20216;-73
2021/12/21 07:52:54;;;;;;;9.57;4.40;;;;;;;6.31;46.17;100109.94;5112282;28;20212;-76
2021/12/21 07:55:22;;;;;;;6.00;4.93;;;;;;;6.20;45.67;100115.44;5112757;28;20226;-78
2021/12/21 07:57:49;;;;;;;5.20;4.80;;;;;;;6.41;44.97;100113.28;5112687;28;20291;-77
2021/12/21 08:00:17;;;;;;;5.30;4.90;;;;;;;6.36;44.79;100120.03;5112728;28;20194;-78
2021/12/21 08:02:44;;;;;;;5.83;5.13;;;;;;;6.20;44.89;100123.38;5112668;28;20619;-80
2021/12/21 08:05:12;;;;;;;6.00;5.40;;;;;;;5.97;45.15;100119.56;5113548;28;20199;-76
2021/12/21 08:07:46;;;;;;;6.57;5.97;;;;;;;5.99;45.62;100127.28;5113573;28;20203;-79
2021/12/21 08:10:26;;;;;;;8.50;7.70;;;;;;;5.74;45.35;100124.44;5112144;28;20566;-76
2021/12/21 08:12:55;;;;;;;12.57;6.47;;;;;;;6.04;45.48;100125.06;5090542;28;20518;-78
2021/12/21 08:15:24;;;;;;;20.27;8.40;;;;;;;6.50;44.72;100135.31;5095405;28;20199;-79
2021/12/21 08:17:51;;;;;;;9.17;5.50;;;;;;;6.71;43.26;100146.34;5099141;28;20283;-80
2021/12/21 08:20:18;;;;;;;18.27;7.93;;;;;;;6.80;42.74;100145.38;5116479;28;20202;-80
2021/12/21 08:22:45;;;;;;;6.57;5.70;;;;;;;6.67;42.93;100151.09;5116749;28;20255;-77
2021/12/21 08:25:12;;;;;;;9.60;5.47;;;;;;;6.43;42.18;100147.44;5116741;28;20210;-75
2021/12/21 08:27:39;;;;;;;7.50;5.03;;;;;;;6.55;42.39;100151.50;5116703;28;20192;-77
2021/12/21 08:30:09;;;;;;;6.17;4.90;;;;;;;6.72;41.86;100147.97;5116261;28;20187;-75
2021/12/21 08:32:36;;;;;;;8.67;4.70;;;;;;;6.79;41.50;100146.38;5116385;28;20274;-79
2021/12/21 08:35:05;;;;;;;6.77;5.10;;;;;;;7.05;39.96;100155.09;5116062;28;20297;-78
2021/12/21 08:37:33;;;;;;;5.00;4.70;;;;;;;7.23;40.83;100151.38;5116694;28;20197;-76
2021/12/21 08:39:59;;;;;;;26.90;7.47;;;;;;;7.29;40.00;100149.94;5113273;28;20250;-76
2021/12/21 08:42:27;;;;;;;6.00;4.60;;;;;;;7.34;39.06;100155.56;5096066;28;20259;-79
2021/12/21 08:44:53;;;;;;;5.30;4.33;;;;;;;7.51;39.33;100146.72;5096056;28;20650;-77
2021/12/21 08:47:22;;;;;;;5.60;4.90;;;;;;;7.34;38.69;100151.13;5095803;28;20187;-78
2021/12/21 08:49:49;;;;;;;7.73;4.57;;;;;;;7.27;38.68;100149.28;5095676;28;20739;-78
2021/12/21 08:52:16;;;;;;;13.53;3.87;;;;;;;7.22;38.41;100146.28;5095932;28;20248;-78
2021/12/21 08:54:44;;;;;;;4.43;4.03;;;;;;;7.38;39.07;100141.03;5095360;28;20276;-75
2021/12/21 08:57:11;;;;;;;10.50;4.87;;;;;;;7.21;38.68;100140.16;5095507;28;20547;-76
2021/12/21 08:59:37;;;;;;;10.17;4.70;;;;;;;7.36;38.95;100143.03;5095906;28;20592;-78
2021/12/21 09:02:05;;;;;;;4.40;3.50;;;;;;;7.45;37.74;100144.72;5095884;28;20251;-79
2021/12/21 09:04:33;;;;;;;11.17;4.87;;;;;;;7.42;38.40;100142.38;5095501;28;20191;-78
2021/12/21 09:07:00;;;;;;;9.43;6.80;;;;;;;7.56;38.50;100149.72;5095230;28;20259;-77
2021/12/21 09:09:26;;;;;;;5.27;4.30;;;;;;;7.56;38.58;100139.13;5095264;28;20316;-78
2021/12/21 09:11:53;;;;;;;43.47;33.73;;;;;;;8.00;37.67;100137.91;5095389;28;20191;-77
2021/12/21 09:14:21;;;;;;;9.67;8.77;;;;;;;8.24;37.81;100143.22;5095063;28;20276;-78
2021/12/21 09:16:49;;;;;;;12.70;10.53;;;;;;;8.31;37.30;100142.41;5094827;28;20202;-77
2021/12/21 09:19:16;;;;;;;11.03;6.33;;;;;;;8.04;37.53;100136.59;5109126;28;20229;-73
2021/12/21 09:21:44;;;;;;;14.30;4.60;;;;;;;8.23;38.04;100138.94;5107002;28;20211;-76
2021/12/21 09:24:13;;;;;;;17.30;7.20;;;;;;;8.41;37.63;100140.41;5094747;28;20743;-75
2021/12/21 09:26:39;;;;;;;5.67;4.73;;;;;;;8.36;38.09;100140.09;5094081;28;20654;-77
2021/12/21 09:29:06;;;;;;;7.03;6.20;;;;;;;8.20;37.54;100128.63;5094936;28;20260;-76
2021/12/21 09:31:33;;;;;;;7.30;6.10;;;;;;;8.00;38.88;100122.03;5094722;28;20252;-76
2021/12/21 09:33:59;;;;;;;23.43;10.80;;;;;;;8.34;38.08;100120.88;5094354;28;20773;-75
2021/12/21 09:36:28;;;;;;;10.07;8.37;;;;;;;8.40;37.17;100109.66;5094831;28;20260;-74
2021/12/21 09:38:58;;;;;;;23.90;14.40;;;;;;;8.39;37.64;100112.47;5095218;28;20187;-75
2021/12/21 09:41:25;;;;;;;7.70;5.80;;;;;;;7.62;38.24;100107.59;5109651;28;20193;-78
2021/12/21 09:43:51;;;;;;;9.17;6.97;;;;;;;7.28;38.97;100108.66;5115366;28;20661;-78
2021/12/21 09:46:18;;;;;;;4.90;4.10;;;;;;;6.69;41.05;100106.88;5114351;28;20263;-78
2021/12/21 09:48:45;;;;;;;5.80;5.30;;;;;;;6.70;41.49;100107.72;5114583;28;20190;-78
2021/12/21 09:51:12;;;;;;;19.40;6.87;;;;;;;6.65;41.45;100104.72;5114752;28;20197;-78
2021/12/21 09:53:39;;;;;;;4.53;3.90;;;;;;;6.57;41.87;100102.84;5114780;28;20196;-79
2021/12/21 09:56:07;;;;;;;5.87;5.37;;;;;;;6.55;41.88;100106.63;5114762;28;20248;-79
2021/12/21 09:58:35;;;;;;;10.57;6.83;;;;;;;6.47;42.09;100107.41;5114706;28;20698;-77
2021/12/21 10:01:02;;;;;;;6.80;6.20;;;;;;;6.57;42.23;100097.56;5114395;28;20231;-77
2021/12/21 10:03:28;;;;;;;8.17;6.57;;;;;;;6.63;41.01;100104.03;5114598;28;20259;-78
2021/12/21 10:06:04;;;;;;;9.40;7.47;;;;;;;6.75;40.32;100095.72;5114278;28;20190;-77
2021/12/21 10:08:32;;;;;;;7.13;5.60;;;;;;;6.77;40.33;100098.19;5114980;28;20186;-77
2021/12/21 10:10:59;;;;;;;17.97;14.73;;;;;;;6.92;39.34;100096.59;5113870;28;20201;-78
2021/12/21 10:13:28;;;;;;;13.67;9.53;;;;;;;7.10;38.75;100100.00;5114507;28;20278;-78
2021/12/21 10:15:57;;;;;;;22.93;5.83;;;;;;;7.26;38.92;100100.06;5114324;28;20218;-78
2021/12/21 10:18:26;;;;;;;13.77;4.13;;;;;;;7.32;38.05;100104.69;5114801;28;20249;-75
2021/12/21 10:20:55;;;;;;;8.90;7.60;;;;;;;7.36;38.71;100095.47;5113810;28;20243;-73
2021/12/21 10:23:24;;;;;;;8.80;7.97;;;;;;;7.40;39.02;100096.81;5113615;28;20195;-74
2021/12/21 10:25:53;;;;;;;7.67;6.90;;;;;;;7.41;38.73;100090.50;5113872;28;20194;-69
2021/12/21 10:28:33;;;;;;;6.17;5.77;;;;;;;7.31;38.86;100095.13;5113852;28;20242;-69
2021/12/21 10:31:01;;;;;;;29.03;10.47;;;;;;;7.19;38.35;100093.75;5101601;28;20323;-71
2021/12/21 10:33:29;;;;;;;42.87;26.03;;;;;;;7.42;38.67;100089.53;5093544;28;20197;-69
2021/12/21 10:35:57;;;;;;;8.07;7.23;;;;;;;7.66;38.03;100086.94;5093403;28;20270;-72
2021/12/21 10:38:29;;;;;;;10.07;4.43;;;;;;;7.58;38.38;100082.47;5092131;28;20195;-69
2021/12/21 10:41:00;;;;;;;3.53;2.30;;;;;;;7.92;37.00;100083.16;5103647;28;20678;-69
2021/12/21 10:43:30;;;;;;;41.87;5.27;;;;;;;7.97;37.31;100077.38;5113478;28;20218;-69
2021/12/21 10:45:58;;;;;;;3.40;2.50;;;;;;;7.69;37.95;100068.94;5100958;28;20201;-69
2021/12/21 10:48:24;;;;;;;2.13;2.00;;;;;;;7.85;37.03;100070.78;5093129;28;20278;-69
2021/12/21 10:50:52;;;;;;;3.30;3.00;;;;;;;7.99;37.67;100056.88;5091952;28;20248;-69
2021/12/21 10:53:21;;;;;;;3.43;3.13;;;;;;;7.79;37.50;100072.25;5091003;28;20231;-70
2021/12/21 10:55:48;;;;;;;8.03;3.80;;;;;;;7.78;36.81;100061.84;5090801;28;20214;-70
2021/12/21 10:58:16;;;;;;;5.87;4.37;;;;;;;7.53;36.77;100086.59;5089850;28;20246;-70
2021/12/21 11:00:47;;;;;;;7.37;5.47;;;;;;;7.45;37.25;100086.56;5090857;28;20195;-69
2021/12/21 11:03:18;;;;;;;8.80;7.40;;;;;;;7.80;37.00;100079.19;5091213;28;20183;-70
2021/12/21 11:05:46;;;;;;;10.17;7.87;;;;;;;7.63;36.31;100082.00;5090765;28;20236;-70
2021/12/21 11:08:24;;;;;;;8.93;4.00;;;;;;;7.64;37.27;100073.06;5091723;28;20674;-70
2021/12/21 11:10:56;;;;;;;8.93;3.73;;;;;;;7.55;36.26;100079.34;5092172;28;20210;-70
2021/12/21 11:13:23;;;;;;;7.03;4.30;;;;;;;7.45;36.08;100089.22;5092767;28;20248;-70
2021/12/21 11:15:55;;;;;;;4.83;4.30;;;;;;;7.37;36.53;100082.09;5092335;28;20219;-69
2021/12/21 11:18:23;;;;;;;3.80;3.50;;;;;;;7.68;36.40;100085.78;5099146;28;20190;-69
2021/12/21 11:20:52;;;;;;;10.10;5.87;;;;;;;7.96;35.75;100088.97;5112666;28;20213;-68
2021/12/21 11:23:21;;;;;;;18.70;3.97;;;;;;;7.93;34.67;100089.28;5112992;28;20248;-68
2021/12/21 11:25:49;;;;;;;3.60;3.30;;;;;;;7.79;34.46;100089.91;5112707;28;20267;-75
2021/12/21 11:28:18;;;;;;;6.67;2.50;;;;;;;7.96;34.05;100084.47;5097699;28;20202;-72
2021/12/21 11:30:45;;;;;;;2.20;2.10;;;;;;;8.23;34.55;100075.41;5090642;28;20191;-74
2021/12/21 11:33:17;;;;;;;13.57;2.80;;;;;;;8.09;33.95;100063.66;5090495;28;20191;-74
2021/12/21 11:38:44;;;;;;;9.57;3.47;;;;;;;7.35;35.19;100072.69;5026846;28;20220;-73
2021/12/21 11:41:11;;;;;;;4.93;2.90;;;;;;;7.23;35.33;100066.03;5039397;28;20250;-73
2021/12/21 11:43:42;;;;;;;3.70;2.67;;;;;;;7.41;35.83;100067.56;5066376;28;20660;-75
2021/12/21 11:46:14;;;;;;;9.40;3.00;;;;;;;7.39;35.01;100066.09;5089409;28;20740;-73
2021/12/21 11:48:50;;;;;;;11.40;4.10;;;;;;;7.43;34.73;100067.41;5089174;28;20188;-72
2021/12/21 11:51:18;;;;;;;7.97;2.70;;;;;;;7.59;34.23;100076.19;5090903;28;20182;-72
2021/12/21 11:53:44;;;;;;;7.97;3.60;;;;;;;7.62;35.14;100064.47;5090617;28;20194;-73
2021/12/21 11:56:19;;;;;;;21.13;4.97;;;;;;;7.55;34.82;100063.47;5089603;28;20271;-74
2021/12/21 11:58:46;;;;;;;6.90;3.03;;;;;;;7.03;35.75;100068.13;5090123;28;20285;-77
2021/12/21 12:01:16;;;;;;;5.10;3.30;;;;;;;7.08;36.33;100059.69;5091167;28;20217;-75
2021/12/21 12:03:56;;;;;;;3.80;2.80;;;;;;;7.18;35.98;100060.41;5090409;28;20222;-77
2021/12/21 12:06:23;;;;;;;3.90;2.30;;;;;;;7.09;36.88;100062.19;5091452;28;20186;-76
2021/12/21 12:08:55;;;;;;;3.27;3.13;;;;;;;6.70;37.26;100065.50;5091918;28;20199;-78
2021/12/21 12:11:24;;;;;;;2.20;2.10;;;;;;;6.58;37.33;100057.03;5091779;28;20665;-76
2021/12/21 12:14:04;;;;;;;2.50;2.40;;;;;;;6.49;37.78;100063.22;5092032;28;20256;-78
2021/12/21 12:16:41;;;;;;;3.90;2.03;;;;;;;6.58;37.30;100072.88;5091726;28;20213;-78
2021/12/21 12:19:14;;;;;;;2.67;2.43;;;;;;;6.62;37.53;100065.44;5105498;28;20196;-79